Time;durP1;ratioP1;P1;durP2;ratioP2;P2;SDS_P1;SDS_P2;PMS_P1;PMS_P2;Temp;Humidity;BMP_temperature;BMP_pressure;BME280_temperature;BME280_humidity;BME280_pressure;Samples;Min_cycle;Max_cycle;Signal;HPM_P1;HPM_P2
2024/01/23 00:00:37;;;;;;;27.00;24.10;;;;;;;2.15;81.84;97950.64;106557;1266;24059;-80
2024/01/23 00:03:26;;;;;;;27.60;24.70;;;;;;;2.14;84.06;97948.92;106904;1270;25273;-80
2024/01/23 00:05:54;;;;;;;25.70;23.20;;;;;;;2.11;83.62;97959.45;106893;1269;22660;-79
2024/01/23 00:08:22;;;;;;;26.90;24.30;;;;;;;2.09;86.18;97958.48;107071;1266;25237;-78
2024/01/23 00:10:50;;;;;;;23.40;20.90;;;;;;;2.06;87.54;97961.83;107005;1278;22668;-78
2024/01/23 00:13:18;;;;;;;22.10;19.80;;;;;;;2.06;88.56;97963.63;107000;1280;25419;-79
2024/01/23 00:15:46;;;;;;;20.60;18.60;;;;;;;2.08;89.85;97966.69;106854;1280;22565;-78
2024/01/23 00:18:14;;;;;;;22.80;20.60;;;;;;;2.09;90.44;97968.55;106911;1276;22535;-79
2024/01/23 00:20:42;;;;;;;23.20;21.00;;;;;;;2.09;91.06;97975.09;106839;1277;22540;-80
2024/01/23 00:23:10;;;;;;;20.40;18.40;;;;;;;2.09;91.25;97977.83;106918;1276;25357;-77
2024/01/23 00:25:38;;;;;;;19.60;17.70;;;;;;;2.13;93.59;97979.05;106916;1273;22570;-79
2024/01/23 00:28:06;;;;;;;17.70;15.90;;;;;;;2.18;95.33;97981.04;106887;1273;24249;-79
2024/01/23 00:30:34;;;;;;;20.50;18.40;;;;;;;2.19;95.16;97984.40;106963;1280;22586;-79
2024/01/23 00:33:02;;;;;;;19.10;17.30;;;;;;;2.21;96.58;97982.15;106934;1273;23010;-78
2024/01/23 00:35:31;;;;;;;20.50;18.50;;;;;;;2.36;97.56;97991.04;106955;1280;24208;-81
2024/01/23 00:37:58;;;;;;;18.70;16.70;;;;;;;2.37;98.37;97989.85;106876;1273;25394;-82
2024/01/23 00:40:26;;;;;;;18.70;16.90;;;;;;;2.36;98.87;97989.51;106880;1266;22659;-82
2024/01/23 00:42:54;;;;;;;18.90;17.20;;;;;;;2.35;99.30;97990.86;106937;1273;22617;-82
2024/01/23 00:45:22;;;;;;;18.80;17.00;;;;;;;2.31;98.83;97989.00;106905;1280;22553;-80
2024/01/23 00:47:50;;;;;;;19.10;17.10;;;;;;;2.30;99.95;97989.80;106928;1268;25334;-80
2024/01/23 00:50:19;;;;;;;20.70;18.70;;;;;;;2.27;97.60;97991.55;106698;1265;25395;-81
2024/01/23 00:52:46;;;;;;;19.60;17.60;;;;;;;2.32;99.16;97992.05;106726;1271;22749;-78
2024/01/23 00:55:15;;;;;;;21.10;19.10;;;;;;;2.35;99.98;97991.46;106755;1276;22547;-78
2024/01/23 00:57:42;;;;;;;20.50;18.60;;;;;;;2.32;99.56;97986.19;106501;1274;25512;-78
2024/01/23 01:00:11;;;;;;;23.40;21.40;;;;;;;2.29;98.26;97977.38;106488;1280;22540;-77
2024/01/23 01:02:39;;;;;;;24.30;22.00;;;;;;;2.29;98.26;97976.86;106512;1272;22562;-77
2024/01/23 01:05:07;;;;;;;25.70;23.50;;;;;;;2.32;99.74;97971.52;106468;1266;22635;-76
2024/01/23 01:07:35;;;;;;;22.60;20.50;;;;;;;2.36;98.84;97971.45;106492;1276;24197;-76
2024/01/23 01:10:06;;;;;;;25.50;23.20;;;;;;;2.43;100.00;97970.88;106614;1280;24279;-82
2024/01/23 01:12:34;;;;;;;28.50;25.90;;;;;;;2.40;99.92;97974.56;106824;1280;24738;-79
2024/01/23 01:15:03;;;;;;;22.00;20.00;;;;;;;2.37;99.94;97974.94;106882;1280;25400;-81
2024/01/23 01:17:32;;;;;;;18.90;17.10;;;;;;;2.36;100.00;97972.42;106962;1266;22674;-82
2024/01/23 01:20:00;;;;;;;18.00;16.30;;;;;;;2.36;100.00;97979.08;106597;1269;22534;-78
2024/01/23 01:22:28;;;;;;;18.80;16.90;;;;;;;2.35;100.00;97980.13;106529;1275;22682;-82
2024/01/23 01:24:56;;;;;;;19.90;18.00;;;;;;;2.33;100.00;97972.87;106805;1266;22655;-83
2024/01/23 01:27:24;;;;;;;17.60;15.90;;;;;;;2.30;100.00;97969.80;106754;1280;22622;-82
2024/01/23 01:29:52;;;;;;;18.40;16.60;;;;;;;2.33;100.00;97970.42;106713;1266;22612;-82
2024/01/23 01:32:20;;;;;;;18.10;16.40;;;;;;;2.32;100.00;97968.70;106709;1280;22541;-82
2024/01/23 01:34:48;;;;;;;18.00;16.20;;;;;;;2.33;100.00;97969.67;106823;1273;22581;-80
2024/01/23 01:37:15;;;;;;;17.40;15.70;;;;;;;2.35;100.00;97970.98;106541;1273;22540;-81
2024/01/23 01:39:43;;;;;;;19.00;17.00;;;;;;;2.35;100.00;97975.66;107186;1280;22567;-81
2024/01/23 01:42:11;;;;;;;16.50;15.00;;;;;;;2.35;100.00;97975.02;106914;1266;25583;-80
2024/01/23 01:44:40;;;;;;;16.70;14.70;;;;;;;2.33;100.00;97977.98;106862;1273;22537;-81
2024/01/23 01:47:08;;;;;;;14.30;13.00;;;;;;;2.32;100.00;97988.23;106771;1273;22550;-81
2024/01/23 01:49:36;;;;;;;15.10;13.50;;;;;;;2.35;100.00;97994.91;106821;1280;22687;-85
2024/01/23 01:52:04;;;;;;;15.50;14.10;;;;;;;2.36;100.00;97996.31;106918;1280;24206;-82
2024/01/23 01:54:32;;;;;;;15.80;14.30;;;;;;;2.35;100.00;97995.59;106873;1266;22658;-84
2024/01/23 01:57:01;;;;;;;14.90;13.40;;;;;;;2.35;100.00;97999.64;106571;1269;24214;-83
2024/01/23 01:59:34;;;;;;;15.10;13.70;;;;;;;2.29;100.00;97995.10;106857;1269;22045;-83
2024/01/23 02:02:04;;;;;;;15.40;13.90;;;;;;;2.25;100.00;97993.39;106925;1280;24827;-84
2024/01/23 02:04:32;;;;;;;15.60;14.20;;;;;;;2.25;100.00;97990.35;106972;1280;23542;-85
2024/01/23 02:07:01;;;;;;;14.10;12.70;;;;;;;2.25;100.00;97986.73;106853;1280;22585;-82
2024/01/23 02:09:30;;;;;;;16.00;14.40;;;;;;;2.21;100.00;97982.56;106933;1276;22658;-83
2024/01/23 02:12:00;;;;;;;14.10;12.80;;;;;;;2.17;100.00;97981.81;106504;1257;25633;-83
2024/01/23 02:14:31;;;;;;;15.40;13.90;;;;;;;2.15;100.00;97982.54;106992;1276;25473;-82
2024/01/23 02:16:59;;;;;;;14.50;13.00;;;;;;;2.15;100.00;97984.39;106770;1265;22536;-83
2024/01/23 02:19:27;;;;;;;14.50;13.00;;;;;;;2.13;100.00;97978.14;106538;1280;24249;-83
2024/01/23 02:21:55;;;;;;;15.10;13.60;;;;;;;2.13;100.00;97980.85;106888;1273;22552;-83
2024/01/23 02:24:23;;;;;;;16.10;14.60;;;;;;;2.14;100.00;97980.87;106925;1273;22564;-82
2024/01/23 02:26:51;;;;;;;15.10;13.70;;;;;;;2.09;100.00;97972.43;106860;1259;23927;-84
2024/01/23 02:29:19;;;;;;;14.00;12.70;;;;;;;2.09;100.00;97972.88;106503;1280;25452;-83
2024/01/23 02:31:47;;;;;;;14.50;13.10;;;;;;;2.09;100.00;97978.82;106511;1276;25370;-83
2024/01/23 02:34:15;;;;;;;15.30;13.80;;;;;;;2.09;100.00;97974.41;106549;1280;24428;-83
2024/01/23 02:36:44;;;;;;;14.40;13.10;;;;;;;2.07;100.00;97977.80;106821;1269;22567;-83
2024/01/23 02:39:12;;;;;;;15.00;13.60;;;;;;;2.06;100.00;97982.81;106767;1270;24300;-83
2024/01/23 02:41:40;;;;;;;13.90;12.30;;;;;;;2.01;100.00;97982.31;106797;1276;22544;-83
2024/01/23 02:44:07;;;;;;;14.10;12.80;;;;;;;1.99;100.00;97976.64;107041;1280;23207;-82
2024/01/23 02:46:35;;;;;;;13.20;12.00;;;;;;;1.97;100.00;97980.32;106747;1269;25281;-82
2024/01/23 02:49:04;;;;;;;14.90;13.60;;;;;;;1.96;100.00;97977.93;107531;1275;22494;-84
2024/01/23 02:51:33;;;;;;;16.00;14.40;;;;;;;1.97;100.00;97974.05;108166;1280;23940;-84
2024/01/23 02:54:01;;;;;;;14.80;13.50;;;;;;;1.95;100.00;97974.55;107664;1273;22669;-83
2024/01/23 02:56:29;;;;;;;14.00;12.70;;;;;;;1.98;100.00;97979.60;106630;1280;24758;-85
2024/01/23 02:58:57;;;;;;;14.10;12.80;;;;;;;1.97;100.00;97966.58;107060;1280;22545;-83
2024/01/23 03:01:25;;;;;;;14.30;12.90;;;;;;;1.99;100.00;97967.14;106876;1280;22565;-83
2024/01/23 03:03:53;;;;;;;14.70;13.30;;;;;;;1.96;100.00;97960.76;106455;1269;22583;-85
2024/01/23 03:06:21;;;;;;;14.50;13.10;;;;;;;1.95;100.00;97969.20;106784;1275;22573;-83
2024/01/23 03:08:49;;;;;;;15.70;14.30;;;;;;;1.93;100.00;97968.15;106838;1266;25347;-84
2024/01/23 03:11:17;;;;;;;15.30;13.90;;;;;;;1.92;100.00;97978.93;106787;1278;22534;-83
2024/01/23 03:13:45;;;;;;;16.40;15.00;;;;;;;1.93;100.00;97978.14;108527;1273;25942;-84
2024/01/23 03:16:14;;;;;;;15.80;14.40;;;;;;;1.93;100.00;97978.51;106874;1276;25341;-85
2024/01/23 03:18:48;;;;;;;17.70;16.20;;;;;;;1.95;100.00;97979.13;106808;1280;24103;-84
2024/01/23 03:21:16;;;;;;;18.50;16.80;;;;;;;1.99;100.00;97987.11;106776;1280;23308;-83
2024/01/23 03:23:44;;;;;;;17.70;16.10;;;;;;;1.93;100.00;97982.45;106470;1276;24368;-83
2024/01/23 03:26:12;;;;;;;17.70;16.20;;;;;;;1.92;100.00;97981.48;106809;1280;22559;-84
2024/01/23 03:28:40;;;;;;;17.60;15.90;;;;;;;1.92;100.00;97978.39;106463;1259;22817;-83
2024/01/23 03:31:08;;;;;;;17.30;15.60;;;;;;;1.91;100.00;97977.73;106445;1280;22559;-84
2024/01/23 03:33:36;;;;;;;19.10;17.50;;;;;;;1.92;100.00;97988.05;106865;1269;22556;-81
2024/01/23 03:36:05;;;;;;;20.30;18.50;;;;;;;1.94;100.00;97996.54;106873;1273;22675;-80
2024/01/23 03:38:32;;;;;;;19.20;17.60;;;;;;;1.90;100.00;97995.79;106482;1266;24178;-81
2024/01/23 03:41:00;;;;;;;17.90;16.20;;;;;;;1.90;100.00;97996.84;106503;1274;24274;-80
2024/01/23 03:43:29;;;;;;;18.60;17.00;;;;;;;1.87;100.00;97990.79;106440;1280;25404;-80
2024/01/23 03:45:56;;;;;;;20.50;18.70;;;;;;;1.83;100.00;97987.98;106563;1273;22546;-80
2024/01/23 03:48:24;;;;;;;22.50;20.50;;;;;;;1.83;100.00;97985.95;106849;1280;25525;-81
2024/01/23 03:50:52;;;;;;;22.60;20.60;;;;;;;1.78;100.00;97991.55;106486;1266;22544;-80
2024/01/23 03:53:20;;;;;;;21.30;19.50;;;;;;;1.76;100.00;97989.76;106456;1280;22562;-81
2024/01/23 03:55:48;;;;;;;21.40;19.60;;;;;;;1.76;100.00;97991.61;106487;1266;22534;-81
2024/01/23 03:58:16;;;;;;;20.60;18.80;;;;;;;1.76;100.00;97999.90;106874;1269;23257;-81
2024/01/23 04:00:44;;;;;;;22.20;20.10;;;;;;;1.78;100.00;97998.78;106500;1265;22539;-80
2024/01/23 04:03:12;;;;;;;22.80;20.80;;;;;;;1.74;100.00;98001.00;106518;1269;22544;-80
2024/01/23 04:05:41;;;;;;;21.40;19.30;;;;;;;1.69;100.00;98004.25;106442;1265;22760;-81
2024/01/23 04:08:09;;;;;;;21.10;19.20;;;;;;;1.70;100.00;98000.44;106524;1280;22527;-83
2024/01/23 04:10:37;;;;;;;20.90;19.00;;;;;;;1.69;100.00;98009.61;106548;1280;26500;-81
2024/01/23 04:13:05;;;;;;;21.50;19.60;;;;;;;1.71;100.00;98013.46;106644;1269;23886;-81
2024/01/23 04:15:32;;;;;;;21.50;19.50;;;;;;;1.70;100.00;98013.60;106553;1280;25573;-81
2024/01/23 04:18:00;;;;;;;23.50;21.30;;;;;;;1.68;100.00;98010.29;106805;1280;23908;-82
2024/01/23 04:20:29;;;;;;;22.60;20.60;;;;;;;1.66;100.00;98001.60;106429;1276;23321;-81
2024/01/23 04:22:57;;;;;;;22.80;20.80;;;;;;;1.65;100.00;98011.39;106462;1266;25422;-82
2024/01/23 04:25:25;;;;;;;22.20;20.00;;;;;;;1.63;100.00;98013.64;106432;1269;22543;-80
2024/01/23 04:27:53;;;;;;;23.70;21.60;;;;;;;1.65;100.00;98016.33;106481;1276;24225;-80
2024/01/23 04:30:21;;;;;;;24.30;22.00;;;;;;;1.68;100.00;98023.52;106525;1269;23096;-82
2024/01/23 04:32:49;;;;;;;25.50;23.20;;;;;;;1.65;100.00;98023.47;106858;1269;22553;-82
2024/01/23 04:35:17;;;;;;;24.20;22.00;;;;;;;1.64;100.00;98017.73;106501;1269;23211;-82
2024/01/23 04:37:45;;;;;;;23.80;21.60;;;;;;;1.64;100.00;98020.84;107279;1266;22572;-83
2024/01/23 04:40:13;;;;;;;25.50;23.10;;;;;;;1.67;100.00;98017.96;108014;1280;23862;-82
2024/01/23 04:42:41;;;;;;;24.40;22.30;;;;;;;1.67;100.00;98013.98;108091;1280;22541;-85
2024/01/23 04:45:10;;;;;;;27.00;24.60;;;;;;;1.67;100.00;98011.66;107618;1276;24049;-86
2024/01/23 04:47:38;;;;;;;24.90;22.80;;;;;;;1.66;100.00;98021.24;109174;1280;22570;-84
2024/01/23 04:50:06;;;;;;;25.10;22.80;;;;;;;1.67;100.00;98027.27;107432;1280;24157;-84
2024/01/23 04:52:34;;;;;;;24.70;22.40;;;;;;;1.70;100.00;98022.05;106525;1273;24043;-87
2024/01/23 04:55:02;;;;;;;23.60;21.50;;;;;;;1.71;100.00;98015.59;106839;1265;22557;-85
2024/01/23 04:57:31;;;;;;;24.90;22.70;;;;;;;1.74;100.00;98021.23;106520;1270;24381;-83
2024/01/23 05:00:01;;;;;;;23.30;21.30;;;;;;;1.77;100.00;98019.27;106517;1280;25412;-83
2024/01/23 05:02:29;;;;;;;26.40;24.00;;;;;;;1.77;100.00;98022.35;106535;1280;22544;-83
2024/01/23 05:04:57;;;;;;;23.90;21.80;;;;;;;1.75;100.00;98022.47;106449;1257;25603;-84
2024/01/23 05:07:25;;;;;;;24.10;21.80;;;;;;;1.74;100.00;98038.88;106941;1280;24346;-90
2024/01/23 05:09:53;;;;;;;24.70;22.50;;;;;;;1.75;100.00;98045.43;106882;1278;22620;-82
2024/01/23 05:12:21;;;;;;;23.60;21.40;;;;;;;1.76;100.00;98036.30;106856;1280;25366;-83
2024/01/23 05:14:49;;;;;;;23.20;21.20;;;;;;;1.78;100.00;98042.03;106814;1280;22576;-83
2024/01/23 05:17:17;;;;;;;26.90;24.40;;;;;;;1.77;100.00;98043.28;106852;1266;22564;-84
2024/01/23 05:19:45;;;;;;;25.30;23.10;;;;;;;1.75;100.00;98046.58;106821;1275;23321;-84
2024/01/23 05:22:13;;;;;;;25.10;22.70;;;;;;;1.74;100.00;98052.41;106836;1280;22547;-84
2024/01/23 05:24:42;;;;;;;24.40;22.20;;;;;;;1.74;100.00;98052.69;106832;1275;23317;-85
2024/01/23 05:27:10;;;;;;;25.40;23.20;;;;;;;1.75;100.00;98057.37;106894;1266;22527;-83
2024/01/23 05:29:38;;;;;;;26.80;24.20;;;;;;;1.74;100.00;98056.84;106868;1277;22526;-84
2024/01/23 05:32:06;;;;;;;26.00;23.50;;;;;;;1.71;100.00;98057.25;106844;1275;24651;-83
2024/01/23 05:34:35;;;;;;;25.30;23.00;;;;;;;1.70;100.00;98056.80;106862;1266;22552;-83
2024/01/23 05:37:05;;;;;;;38.50;28.60;;;;;;;1.73;100.00;98059.48;106900;1276;22561;-82
2024/01/23 05:39:37;;;;;;;31.40;26.30;;;;;;;1.68;100.00;98055.32;106936;1273;22807;-86
2024/01/23 05:42:06;;;;;;;26.70;24.00;;;;;;;1.67;100.00;98045.88;108143;1280;22553;-83
2024/01/23 05:44:35;;;;;;;26.70;24.30;;;;;;;1.67;100.00;98051.51;108131;1266;25552;-83
2024/01/23 05:47:03;;;;;;;27.90;25.30;;;;;;;1.67;100.00;98054.41;106752;1259;22550;-83
2024/01/23 05:49:31;;;;;;;29.80;27.20;;;;;;;1.67;100.00;98058.08;106783;1280;23281;-83
2024/01/23 05:52:00;;;;;;;26.30;24.10;;;;;;;1.65;100.00;98061.12;106772;1280;22988;-84
2024/01/23 05:54:27;;;;;;;25.60;23.30;;;;;;;1.63;100.00;98058.00;106823;1280;22558;-82
2024/01/23 05:56:55;;;;;;;26.50;24.10;;;;;;;1.59;100.00;98055.23;106834;1266;22646;-84
2024/01/23 05:59:23;;;;;;;25.80;23.60;;;;;;;1.56;100.00;98056.40;107896;1275;26550;-82
2024/01/23 06:01:53;;;;;;;28.20;25.80;;;;;;;1.54;100.00;98062.23;109029;1276;22567;-85
2024/01/23 06:04:24;;;;;;;29.60;26.80;;;;;;;1.51;100.00;98064.91;106891;1278;22629;-86
2024/01/23 06:06:54;;;;;;;27.30;24.70;;;;;;;1.50;100.00;98065.63;106874;1268;22533;-86
2024/01/23 06:09:24;;;;;;;25.30;23.00;;;;;;;1.48;100.00;98069.14;106879;1278;22534;-85
2024/01/23 06:11:58;;;;;;;28.60;26.00;;;;;;;1.47;100.00;98074.14;106955;1276;22658;-85
2024/01/23 06:14:26;;;;;;;25.70;23.40;;;;;;;1.46;100.00;98080.87;106884;1280;22561;-83
2024/01/23 06:16:54;;;;;;;25.10;22.80;;;;;;;1.45;100.00;98079.90;106993;1269;22552;-84
2024/01/23 06:19:23;;;;;;;28.70;26.10;;;;;;;1.44;100.00;98083.61;107600;1280;22502;-84
2024/01/23 06:21:51;;;;;;;32.80;30.00;;;;;;;1.41;100.00;98088.65;108329;1280;23939;-83
2024/01/23 06:24:19;;;;;;;38.70;34.80;;;;;;;1.38;100.00;98088.54;107732;1280;24296;-84
2024/01/23 06:26:47;;;;;;;31.90;28.80;;;;;;;1.36;100.00;98092.58;106909;1280;25518;-85
2024/01/23 06:29:15;;;;;;;42.30;38.20;;;;;;;1.39;100.00;98089.92;106952;1280;22637;-86
2024/01/23 06:31:43;;;;;;;31.70;28.70;;;;;;;1.40;100.00;98088.89;106976;1277;22672;-84
2024/01/23 06:34:12;;;;;;;28.00;25.60;;;;;;;1.40;100.00;98085.80;107070;1269;22724;-84
2024/01/23 06:36:40;;;;;;;26.10;23.70;;;;;;;1.42;100.00;98092.06;106872;1270;25382;-84
2024/01/23 06:39:10;;;;;;;27.70;25.20;;;;;;;1.41;100.00;98093.11;107049;1280;22687;-84
2024/01/23 06:41:38;;;;;;;28.30;25.70;;;;;;;1.40;100.00;98090.59;106877;1280;24369;-85
2024/01/23 06:44:06;;;;;;;25.80;23.40;;;;;;;1.40;100.00;98095.83;106906;1280;22647;-84
2024/01/23 06:46:34;;;;;;;28.10;25.40;;;;;;;1.38;100.00;98098.19;108328;1280;25400;-87
2024/01/23 06:49:02;;;;;;;27.00;24.60;;;;;;;1.42;100.00;98094.02;106860;1262;22560;-85
2024/01/23 06:51:31;;;;;;;28.60;26.10;;;;;;;1.44;100.00;98108.12;106847;1266;24260;-88
2024/01/23 06:53:59;;;;;;;32.90;30.00;;;;;;;1.44;100.00;98113.34;106832;1265;25262;-89
2024/01/23 06:56:33;;;;;;;32.20;29.00;;;;;;;1.45;100.00;98119.85;106958;1276;22557;-85
2024/01/23 06:59:03;;;;;;;30.00;27.30;;;;;;;1.46;100.00;98119.88;106949;1269;25484;-85
2024/01/23 07:01:31;;;;;;;41.20;37.10;;;;;;;1.50;100.00;98123.23;106844;1280;22649;-85
2024/01/23 07:03:59;;;;;;;41.40;37.30;;;;;;;1.53;100.00;98127.38;106844;1266;22649;-87
2024/01/23 07:06:27;;;;;;;40.80;36.60;;;;;;;1.55;100.00;98132.70;106898;1278;25395;-86
2024/01/23 07:08:55;;;;;;;28.00;25.40;;;;;;;1.55;100.00;98138.09;106861;1277;22546;-86
2024/01/23 07:11:23;;;;;;;28.90;26.20;;;;;;;1.59;100.00;98142.59;106868;1275;24147;-87
2024/01/23 07:13:51;;;;;;;29.20;26.30;;;;;;;1.64;100.00;98140.63;106923;1280;24190;-87
2024/01/23 07:16:19;;;;;;;28.20;25.70;;;;;;;1.71;100.00;98143.46;106930;1266;22552;-85
2024/01/23 07:18:47;;;;;;;28.40;25.80;;;;;;;1.75;100.00;98148.23;106859;1273;22557;-86
2024/01/23 07:21:16;;;;;;;29.60;26.70;;;;;;;1.77;100.00;98151.04;106876;1269;24200;-85
2024/01/23 07:23:43;;;;;;;26.90;23.20;;;;;;;1.84;100.00;98155.48;106913;1274;22898;-85
2024/01/23 07:26:11;;;;;;;26.60;24.00;;;;;;;1.92;100.00;98160.33;106933;1266;22553;-84
2024/01/23 07:28:39;;;;;;;28.20;25.20;;;;;;;2.01;100.00;98169.85;106842;1276;22569;-83
2024/01/23 07:31:28;;;;;;;31.90;28.90;;;;;;;2.07;100.00;98169.21;106958;1265;25505;-85
2024/01/23 07:33:56;;;;;;;29.30;26.70;;;;;;;2.10;100.00;98173.52;106861;1274;25422;-85
2024/01/23 07:36:26;;;;;;;29.50;26.80;;;;;;;2.13;100.00;98176.82;106865;1259;22709;-84
2024/01/23 07:38:54;;;;;;;27.30;24.60;;;;;;;2.17;100.00;98186.20;106812;1280;25303;-85
2024/01/23 07:41:22;;;;;;;25.60;23.10;;;;;;;2.23;100.00;98196.89;106965;1266;22557;-84
2024/01/23 07:43:50;;;;;;;26.60;24.00;;;;;;;2.24;100.00;98204.79;106894;1266;22531;-85
2024/01/23 07:46:20;;;;;;;25.70;23.30;;;;;;;2.22;100.00;98201.23;106945;1273;22670;-85
2024/01/23 07:48:49;;;;;;;25.40;23.00;;;;;;;2.23;100.00;98204.98;106768;1280;25363;-84
2024/01/23 07:51:17;;;;;;;27.30;24.70;;;;;;;2.25;100.00;98196.19;106937;1275;25387;-85
2024/01/23 07:53:45;;;;;;;27.30;24.70;;;;;;;2.29;100.00;98203.70;107575;1274;22638;-84
2024/01/23 07:56:13;;;;;;;29.10;26.40;;;;;;;2.32;100.00;98205.40;107066;1280;22552;-85
2024/01/23 07:58:41;;;;;;;28.30;25.50;;;;;;;2.32;100.00;98213.71;106936;1273;22586;-85
2024/01/23 08:01:09;;;;;;;27.60;24.90;;;;;;;2.30;100.00;98216.49;106862;1275;22586;-84
2024/01/23 08:03:37;;;;;;;27.30;24.70;;;;;;;2.29;100.00;98216.20;106878;1266;22541;-82
2024/01/23 08:06:05;;;;;;;27.60;24.40;;;;;;;2.28;100.00;98220.23;106827;1277;22530;-82
2024/01/23 08:08:34;;;;;;;26.50;23.80;;;;;;;2.30;100.00;98230.53;106907;1280;22608;-91
2024/01/23 08:11:03;;;;;;;27.90;25.40;;;;;;;2.32;100.00;98228.28;107311;1280;25278;-90
2024/01/23 08:13:30;;;;;;;29.90;26.70;;;;;;;2.32;100.00;98229.59;106871;1280;25307;-80
2024/01/23 08:15:58;;;;;;;25.90;23.30;;;;;;;2.36;100.00;98242.02;106533;1272;25226;-82
2024/01/23 08:18:26;;;;;;;27.00;24.50;;;;;;;2.41;100.00;98246.05;106575;1273;22539;-84
2024/01/23 08:20:55;;;;;;;26.80;24.20;;;;;;;2.44;100.00;98246.05;106916;1278;24216;-79
2024/01/23 08:23:23;;;;;;;28.40;25.70;;;;;;;2.45;100.00;98241.24;106946;1280;24223;-79
2024/01/23 08:25:51;;;;;;;64.10;57.20;;;;;;;2.47;100.00;98239.94;107165;1278;25236;-80
2024/01/23 08:28:19;;;;;;;40.50;36.20;;;;;;;2.55;100.00;98244.73;107185;1273;22530;-81
2024/01/23 08:30:47;;;;;;;24.90;22.40;;;;;;;2.65;100.00;98249.58;107047;1280;22645;-81
2024/01/23 08:33:18;;;;;;;38.70;35.00;;;;;;;2.69;100.00;98251.46;106892;1280;22554;-81
2024/01/23 08:35:46;;;;;;;53.60;48.90;;;;;;;2.73;100.00;98256.05;106975;1277;24364;-81
2024/01/23 08:38:14;;;;;;;45.30;41.10;;;;;;;2.75;100.00;98260.30;107003;1274;22631;-83
2024/01/23 08:40:45;;;;;;;27.40;24.80;;;;;;;2.77;100.00;98255.22;106949;1280;22536;-81
2024/01/23 08:43:13;;;;;;;28.80;25.80;;;;;;;2.84;100.00;98259.75;107058;1277;25264;-81
2024/01/23 08:45:41;;;;;;;27.20;24.50;;;;;;;2.88;100.00;98253.61;107023;1266;23341;-81
2024/01/23 08:48:10;;;;;;;35.50;32.40;;;;;;;2.91;100.00;98248.75;107322;1276;22648;-81
2024/01/23 08:50:40;;;;;;;26.50;23.90;;;;;;;2.93;100.00;98255.83;106957;1267;24332;-81
2024/01/23 08:53:08;;;;;;;25.60;22.90;;;;;;;2.98;100.00;98265.43;106945;1269;25413;-82
2024/01/23 08:55:36;;;;;;;23.20;20.60;;;;;;;3.05;100.00;98266.61;106941;1266;22701;-81
2024/01/23 08:58:04;;;;;;;22.20;19.80;;;;;;;3.12;100.00;98267.48;106584;1269;22550;-81
2024/01/23 09:00:33;;;;;;;25.10;22.60;;;;;;;3.18;100.00;98262.04;106962;1280;24218;-81
2024/01/23 09:03:01;;;;;;;32.10;28.90;;;;;;;3.21;100.00;98265.34;106965;1275;22600;-81
2024/01/23 09:05:29;;;;;;;24.40;21.80;;;;;;;3.17;100.00;98265.13;106890;1266;22549;-80
2024/01/23 09:08:03;;;;;;;23.10;20.60;;;;;;;3.21;100.00;98262.62;106868;1280;22824;-81
2024/01/23 09:10:32;;;;;;;30.40;26.40;;;;;;;3.29;100.00;98268.71;106857;1272;22588;-81
2024/01/23 09:13:00;;;;;;;50.60;33.80;;;;;;;3.32;100.00;98266.70;106866;1280;22572;-80
2024/01/23 09:15:28;;;;;;;46.70;29.20;;;;;;;3.33;100.00;98272.61;106994;1280;23345;-80
2024/01/23 09:17:56;;;;;;;43.70;28.50;;;;;;;3.35;100.00;98272.81;106918;1280;25399;-81
2024/01/23 09:20:24;;;;;;;31.00;22.80;;;;;;;3.40;100.00;98263.95;106980;1278;25411;-81
2024/01/23 09:22:52;;;;;;;31.00;25.40;;;;;;;3.45;100.00;98266.83;106938;1280;23495;-80
2024/01/23 09:25:20;;;;;;;26.80;23.90;;;;;;;3.48;100.00;98266.67;107009;1278;25433;-80
2024/01/23 09:27:51;;;;;;;30.30;27.20;;;;;;;3.47;100.00;98263.98;107074;1278;25260;-80
2024/01/23 09:30:21;;;;;;;25.90;23.30;;;;;;;3.45;100.00;98263.15;106984;1272;23418;-80
2024/01/23 09:32:55;;;;;;;26.70;23.70;;;;;;;3.47;100.00;98264.52;107110;1269;22570;-81
2024/01/23 09:35:23;;;;;;;26.20;23.20;;;;;;;3.48;100.00;98270.56;107011;1269;22603;-80
2024/01/23 09:37:51;;;;;;;29.00;25.60;;;;;;;3.48;100.00;98269.55;106857;1272;22534;-79
2024/01/23 09:40:21;;;;;;;24.60;22.00;;;;;;;3.43;100.00;98269.45;106932;1276;22547;-79
2024/01/23 09:42:55;;;;;;;48.40;43.10;;;;;;;3.39;100.00;98273.73;106938;1277;24747;-79
2024/01/23 09:45:31;;;;;;;22.40;20.00;;;;;;;3.37;100.00;98277.52;107024;1277;23166;-79
2024/01/23 09:47:59;;;;;;;21.80;19.70;;;;;;;3.35;100.00;98280.11;107060;1269;22615;-80
2024/01/23 09:50:28;;;;;;;26.10;23.30;;;;;;;3.31;100.00;98284.30;107072;1273;22533;-79
2024/01/23 09:52:59;;;;;;;27.10;24.20;;;;;;;3.28;100.00;98286.65;106661;1272;24193;-80
2024/01/23 09:55:27;;;;;;;26.10;23.40;;;;;;;3.27;100.00;98287.27;106919;1257;183680;-81
2024/01/23 09:57:55;;;;;;;24.40;21.90;;;;;;;3.25;100.00;98289.42;107091;1278;26516;-80
2024/01/23 10:00:24;;;;;;;25.20;22.60;;;;;;;3.26;100.00;98290.09;107021;1277;23907;-80
2024/01/23 10:02:53;;;;;;;25.50;22.00;;;;;;;3.26;100.00;98293.11;106632;1278;22657;-80
2024/01/23 10:05:22;;;;;;;25.00;22.20;;;;;;;3.26;100.00;98292.42;107061;1276;24293;-80
2024/01/23 10:07:53;;;;;;;24.60;22.00;;;;;;;3.28;100.00;98292.66;106904;1280;22555;-80
2024/01/23 10:10:24;;;;;;;24.40;22.00;;;;;;;3.31;100.00;98300.98;106566;1269;22534;-80
2024/01/23 10:12:53;;;;;;;25.00;22.30;;;;;;;3.34;100.00;98298.63;106938;1269;25409;-80
2024/01/23 10:15:22;;;;;;;25.30;22.60;;;;;;;3.33;100.00;98298.34;106908;1273;22672;-80
2024/01/23 10:17:51;;;;;;;25.10;21.10;;;;;;;3.35;100.00;98310.14;107026;1280;25331;-79
2024/01/23 10:20:19;;;;;;;26.10;22.00;;;;;;;3.37;100.00;98305.55;107076;1266;22705;-80
2024/01/23 10:22:48;;;;;;;25.30;22.30;;;;;;;3.38;100.00;98302.80;107102;1280;22566;-78
2024/01/23 10:25:20;;;;;;;28.00;25.10;;;;;;;3.42;100.00;98308.70;106938;1276;22646;-79
2024/01/23 10:27:51;;;;;;;27.90;25.00;;;;;;;3.41;100.00;98312.05;107069;1280;22553;-80
2024/01/23 10:30:20;;;;;;;23.30;21.10;;;;;;;3.36;100.00;98327.65;106989;1269;22547;-78
2024/01/23 10:32:48;;;;;;;22.60;20.20;;;;;;;3.35;100.00;98320.91;107069;1269;25323;-78
2024/01/23 10:35:16;;;;;;;25.00;22.30;;;;;;;3.30;100.00;98325.55;106537;1280;22537;-79
2024/01/23 10:37:45;;;;;;;25.70;22.90;;;;;;;3.16;100.00;98327.25;106580;1278;23917;-85
2024/01/23 10:40:13;;;;;;;26.30;22.70;;;;;;;3.02;100.00;98324.86;106975;1269;24295;-86
2024/01/23 10:42:42;;;;;;;29.40;26.50;;;;;;;2.93;100.00;98327.69;106957;1280;22541;-88
2024/01/23 10:45:11;;;;;;;26.80;24.10;;;;;;;2.87;100.00;98330.45;107069;1280;22650;-86
2024/01/23 10:47:40;;;;;;;31.00;27.90;;;;;;;2.84;100.00;98333.55;107020;1277;25304;-84
2024/01/23 10:50:09;;;;;;;26.60;23.80;;;;;;;2.75;100.00;98331.52;106981;1277;22600;-86
2024/01/23 10:52:48;;;;;;;26.60;24.00;;;;;;;2.77;100.00;98333.77;106987;1276;23903;-84
2024/01/23 10:55:21;;;;;;;27.50;24.60;;;;;;;2.79;100.00;98327.38;107041;1273;22547;-85
2024/01/23 10:57:53;;;;;;;29.80;26.80;;;;;;;2.85;100.00;98332.98;107001;1272;25345;-84
2024/01/23 11:00:22;;;;;;;33.00;29.70;;;;;;;2.83;100.00;98337.98;107030;1281;22560;-87
2024/01/23 11:02:57;;;;;;;35.00;31.30;;;;;;;2.82;100.00;98340.63;107063;1267;22957;-86
2024/01/23 11:05:45;;;;;;;31.80;28.60;;;;;;;2.82;100.00;98339.73;108699;1269;22562;-85
2024/01/23 11:08:21;;;;;;;33.00;29.40;;;;;;;2.89;100.00;98336.14;108761;1269;24141;-89
2024/01/23 11:10:56;;;;;;;36.00;32.50;;;;;;;2.93;100.00;98338.02;107947;1278;22551;-89
2024/01/23 11:13:40;;;;;;;31.80;28.50;;;;;;;2.96;100.00;98341.47;107524;1259;23445;-90
2024/01/23 11:16:09;;;;;;;30.20;27.30;;;;;;;2.99;100.00;98341.26;109017;1276;22558;-87